UAE803 OMDB-OEJN
Flight info
| Callsign | UAE803 |
|---|---|
| Flight time | N/A |
| Altitude | 34000 |
| Route | ANVIX R401 GIDIS G783 ELUDA/N0477F360 G783 RIGIL M628 PEKEM/N0435F280 M628 MIGMA M550 MEVDO Y511 ITRUX/N0478F360 Y511 ASMIS DCT VEMEM |
| Aircraft | A388/J-SADE2E3FGHIJ3J4J5M1RWXY/LB1D1 |
Departure
| Time | 2026-04-22 13:53 |
|---|---|
| Airport | Dubai International Airport (OMDB) |
Arrival
| Time | N/A |
|---|---|
| Airport | King Abdulaziz International Airport (OEJN) |
| Time | Latitude | Longitude | Altitude | Speed | Heading |
|---|---|---|---|---|---|
| 2026-04-22 12:50 | 25.24969 | 55.36150 | 29 ft | 0 kts | 211° |
| 2026-04-22 13:20 | 25.24970 | 55.36151 | 29 ft | 2 kts | 211° |
| 2026-04-22 13:20 | 25.24993 | 55.36164 | 34 ft | 4 kts | 200° |
| 2026-04-22 13:20 | 25.25019 | 55.36172 | 32 ft | 4 kts | 184° |
| 2026-04-22 13:20 | 25.25045 | 55.36170 | 32 ft | 4 kts | 162° |
| 2026-04-22 13:21 | 25.25069 | 55.36157 | 24 ft | 4 kts | 140° |
| 2026-04-22 13:21 | 25.25088 | 55.36136 | 23 ft | 4 kts | 124° |
| 2026-04-22 13:21 | 25.25102 | 55.36111 | 26 ft | 4 kts | 116° |
| 2026-04-22 13:21 | 25.25112 | 55.36088 | 24 ft | 1 kts | 121° |
| 2026-04-22 13:22 | 25.25113 | 55.36087 | 24 ft | 1 kts | 121° |
| 2026-04-22 13:27 | 25.25109 | 55.36094 | 28 ft | 3 kts | 121° |
| 2026-04-22 13:27 | 25.25089 | 55.36133 | 26 ft | 8 kts | 119° |
| 2026-04-22 13:27 | 25.25078 | 55.36154 | 26 ft | 1 kts | 115° |
| 2026-04-22 13:28 | 25.25077 | 55.36157 | 26 ft | 0 kts | 103° |
| 2026-04-22 13:28 | 25.25082 | 55.36186 | 28 ft | 5 kts | 53° |
| 2026-04-22 13:28 | 25.25115 | 55.36207 | 27 ft | 6 kts | 6° |
| 2026-04-22 13:28 | 25.25154 | 55.36194 | 26 ft | 6 kts | 315° |
| 2026-04-22 13:29 | 25.25185 | 55.36141 | 26 ft | 10 kts | 302° |
| 2026-04-22 13:29 | 25.25228 | 55.36066 | 26 ft | 13 kts | 302° |
| 2026-04-22 13:29 | 25.25281 | 55.35973 | 26 ft | 15 kts | 302° |
| 2026-04-22 13:29 | 25.25299 | 55.35942 | 26 ft | 0 kts | 302° |
| 2026-04-22 13:30 | 25.25299 | 55.35940 | 26 ft | 0 kts | 301° |
| 2026-04-22 13:30 | 25.25300 | 55.35940 | 26 ft | 0 kts | 301° |
| 2026-04-22 13:31 | 25.25302 | 55.35936 | 26 ft | 0 kts | 301° |
| 2026-04-22 13:32 | 25.25303 | 55.35934 | 26 ft | 0 kts | 300° |
| 2026-04-22 13:35 | 25.25310 | 55.35920 | 25 ft | 5 kts | 299° |
| 2026-04-22 13:36 | 25.25335 | 55.35878 | 26 ft | 9 kts | 303° |
| 2026-04-22 13:36 | 25.25372 | 55.35812 | 26 ft | 12 kts | 302° |
| 2026-04-22 13:36 | 25.25420 | 55.35728 | 29 ft | 14 kts | 302° |
| 2026-04-22 13:36 | 25.25475 | 55.35630 | 30 ft | 16 kts | 302° |
| 2026-04-22 13:37 | 25.25536 | 55.35521 | 31 ft | 17 kts | 302° |
| 2026-04-22 13:37 | 25.25602 | 55.35403 | 29 ft | 19 kts | 302° |
| 2026-04-22 13:37 | 25.25671 | 55.35282 | 31 ft | 17 kts | 302° |
| 2026-04-22 13:37 | 25.25733 | 55.35216 | 31 ft | 11 kts | 351° |
| 2026-04-22 13:38 | 25.25805 | 55.35238 | 26 ft | 12 kts | 30° |
| 2026-04-22 13:38 | 25.25898 | 55.35300 | 26 ft | 0 kts | 31° |
| 2026-04-22 13:46 | 25.25899 | 55.35301 | 26 ft | 3 kts | 31° |
| 2026-04-22 13:47 | 25.25962 | 55.35348 | 26 ft | 10 kts | 36° |
| 2026-04-22 13:47 | 25.25995 | 55.35384 | 27 ft | 10 kts | 57° |
| 2026-04-22 13:47 | 25.26011 | 55.35494 | 27 ft | 12 kts | 100° |
| 2026-04-22 13:47 | 25.25988 | 55.35557 | 27 ft | 14 kts | 120° |
| 2026-04-22 13:48 | 25.25911 | 55.35689 | 27 ft | 17 kts | 116° |
| 2026-04-22 13:48 | 25.25868 | 55.35768 | 27 ft | 19 kts | 123° |
| 2026-04-22 13:48 | 25.25795 | 55.35899 | 27 ft | 25 kts | 121° |
| 2026-04-22 13:48 | 25.25685 | 55.36088 | 27 ft | 30 kts | 124° |
| 2026-04-22 13:49 | 25.25577 | 55.36277 | 27 ft | 29 kts | 121° |
| 2026-04-22 13:49 | 25.25474 | 55.36465 | 27 ft | 28 kts | 121° |
| 2026-04-22 13:49 | 25.25369 | 55.36652 | 26 ft | 29 kts | 122° |
| 2026-04-22 13:49 | 25.25265 | 55.36839 | 27 ft | 28 kts | 121° |
| 2026-04-22 13:50 | 25.25162 | 55.37027 | 28 ft | 28 kts | 121° |
| 2026-04-22 13:50 | 25.25058 | 55.37209 | 28 ft | 28 kts | 122° |
| 2026-04-22 13:50 | 25.24957 | 55.37390 | 29 ft | 28 kts | 121° |
| 2026-04-22 13:50 | 25.24853 | 55.37576 | 28 ft | 29 kts | 121° |
| 2026-04-22 13:51 | 25.24750 | 55.37763 | 28 ft | 28 kts | 125° |
| 2026-04-22 13:51 | 25.24675 | 55.37885 | 27 ft | 12 kts | 118° |
| 2026-04-22 13:51 | 25.24665 | 55.37930 | 27 ft | 4 kts | 67° |
| 2026-04-22 13:51 | 25.24681 | 55.37955 | 28 ft | 0 kts | 44° |
| 2026-04-22 13:52 | 25.24745 | 55.38004 | 29 ft | 4 kts | 17° |
| 2026-04-22 13:52 | 25.24846 | 55.37946 | 30 ft | 31 kts | 304° |
| 2026-04-22 13:53 | 25.25103 | 55.37490 | 32 ft | 111 kts | 302° |
| 2026-04-22 13:53 | 25.25618 | 55.36567 | 48 ft | 162 kts | 305° |
| 2026-04-22 13:53 | 25.26164 | 55.35502 | 801 ft | 156 kts | 302° |
| 2026-04-22 13:53 | 25.26672 | 55.34430 | 1514 ft | 163 kts | 306° |
| 2026-04-22 13:54 | 25.27302 | 55.33338 | 2060 ft | 175 kts | 307° |
| 2026-04-22 13:54 | 25.28006 | 55.32182 | 2547 ft | 185 kts | 303° |
| 2026-04-22 13:54 | 25.28710 | 55.30984 | 3081 ft | 198 kts | 301° |
| 2026-04-22 13:54 | 25.29271 | 55.29561 | 3940 ft | 197 kts | 273° |
| 2026-04-22 13:55 | 25.29043 | 55.28129 | 4950 ft | 186 kts | 243° |
| 2026-04-22 13:55 | 25.28432 | 55.26834 | 5682 ft | 199 kts | 242° |
| 2026-04-22 13:55 | 25.27809 | 55.25420 | 6433 ft | 207 kts | 244° |
| 2026-04-22 13:55 | 25.27210 | 55.23998 | 7334 ft | 207 kts | 244° |
| 2026-04-22 13:56 | 25.26596 | 55.22533 | 8229 ft | 211 kts | 244° |
| 2026-04-22 13:56 | 25.25970 | 55.21044 | 9103 ft | 217 kts | 244° |
| 2026-04-22 13:56 | 25.25298 | 55.19456 | 9689 ft | 238 kts | 244° |
| 2026-04-22 13:56 | 25.24416 | 55.17884 | 10427 ft | 244 kts | 225° |
| 2026-04-22 13:57 | 25.22965 | 55.16894 | 11331 ft | 250 kts | 199° |
| 2026-04-22 13:57 | 25.21230 | 55.16727 | 12203 ft | 259 kts | 179° |
| 2026-04-22 13:57 | 25.19411 | 55.17147 | 12771 ft | 280 kts | 158° |
| 2026-04-22 13:57 | 25.18545 | 55.17713 | 13154 ft | 286 kts | 144° |
| 2026-04-22 13:58 | 25.17835 | 55.18469 | 13636 ft | 289 kts | 131° |
| 2026-04-22 13:58 | 25.17289 | 55.19358 | 14017 ft | 293 kts | 122° |
| 2026-04-22 13:58 | 25.16663 | 55.20648 | 14353 ft | 304 kts | 120° |
| 2026-04-22 13:58 | 25.15667 | 55.22806 | 14641 ft | 325 kts | 119° |
| 2026-04-22 13:59 | 25.14633 | 55.25054 | 15293 ft | 330 kts | 120° |
| 2026-04-22 13:59 | 25.13575 | 55.27316 | 15908 ft | 334 kts | 120° |
| 2026-04-22 13:59 | 25.12503 | 55.29573 | 16506 ft | 338 kts | 120° |
| 2026-04-22 13:59 | 25.11398 | 55.31878 | 17107 ft | 342 kts | 120° |
| 2026-04-22 14:00 | 25.10319 | 55.34236 | 17709 ft | 347 kts | 117° |
| 2026-04-22 14:00 | 25.09322 | 55.36683 | 18253 ft | 351 kts | 117° |
| 2026-04-22 14:00 | 25.08308 | 55.39154 | 18776 ft | 355 kts | 117° |
| 2026-04-22 14:00 | 25.07283 | 55.41642 | 19275 ft | 359 kts | 117° |
| 2026-04-22 14:01 | 25.06254 | 55.44200 | 19528 ft | 372 kts | 116° |
| 2026-04-22 14:01 | 25.05222 | 55.46886 | 19682 ft | 388 kts | 115° |
| 2026-04-22 14:01 | 25.04167 | 55.49662 | 19818 ft | 403 kts | 115° |
| 2026-04-22 14:01 | 25.03062 | 55.52562 | 19968 ft | 416 kts | 115° |
| 2026-04-22 14:02 | 25.01882 | 55.55508 | 20355 ft | 421 kts | 119° |
| 2026-04-22 14:02 | 25.00410 | 55.58321 | 20796 ft | 423 kts | 123° |
| 2026-04-22 14:02 | 24.98885 | 55.61121 | 21265 ft | 427 kts | 123° |
| 2026-04-22 14:02 | 24.97373 | 55.63917 | 21712 ft | 431 kts | 123° |
| 2026-04-22 14:03 | 24.95835 | 55.66766 | 22138 ft | 435 kts | 123° |
| 2026-04-22 14:03 | 24.94272 | 55.69640 | 22553 ft | 438 kts | 125° |
| 2026-04-22 14:03 | 24.92506 | 55.72387 | 22989 ft | 440 kts | 129° |
| 2026-04-22 14:03 | 24.90678 | 55.75126 | 23386 ft | 444 kts | 129° |
| 2026-04-22 14:04 | 24.88846 | 55.77887 | 23803 ft | 447 kts | 129° |
| 2026-04-22 14:04 | 24.87001 | 55.80669 | 24168 ft | 451 kts | 129° |
| 2026-04-22 14:04 | 24.85166 | 55.83437 | 24529 ft | 454 kts | 129° |
| 2026-04-22 14:04 | 24.83294 | 55.86256 | 24922 ft | 457 kts | 129° |
| 2026-04-22 14:05 | 24.81345 | 55.89041 | 25296 ft | 458 kts | 135° |
| 2026-04-22 14:05 | 24.78990 | 55.91369 | 25714 ft | 455 kts | 148° |
| 2026-04-22 14:05 | 24.73237 | 55.94027 | 26649 ft | 447 kts | 175° |
| 2026-04-22 14:06 | 24.70195 | 55.94254 | 27081 ft | 443 kts | 187° |
| 2026-04-22 14:06 | 24.67110 | 55.94002 | 27548 ft | 444 kts | 190° |
| 2026-04-22 14:06 | 24.64028 | 55.93644 | 27998 ft | 446 kts | 194° |
| 2026-04-22 14:06 | 24.61046 | 55.92804 | 28468 ft | 442 kts | 205° |
| 2026-04-22 14:07 | 24.58262 | 55.91352 | 28951 ft | 440 kts | 216° |
| 2026-04-22 14:07 | 24.55822 | 55.89352 | 29434 ft | 437 kts | 226° |
| 2026-04-22 14:07 | 24.53546 | 55.87117 | 29897 ft | 441 kts | 225° |
| 2026-04-22 14:07 | 24.51231 | 55.84877 | 30365 ft | 443 kts | 225° |
| 2026-04-22 14:08 | 24.48934 | 55.82668 | 30844 ft | 445 kts | 225° |
| 2026-04-22 14:08 | 24.46585 | 55.80413 | 31310 ft | 447 kts | 226° |
| 2026-04-22 14:08 | 24.44229 | 55.78150 | 31767 ft | 450 kts | 226° |
| 2026-04-22 14:08 | 24.41820 | 55.75838 | 32291 ft | 451 kts | 226° |
| 2026-04-22 14:09 | 24.39450 | 55.73562 | 32724 ft | 453 kts | 226° |
| 2026-04-22 14:09 | 24.37057 | 55.71264 | 33154 ft | 456 kts | 226° |
| 2026-04-22 14:09 | 24.34741 | 55.69041 | 33586 ft | 459 kts | 226° |
| 2026-04-22 14:09 | 24.30944 | 55.65400 | 34184 ft | 463 kts | 227° |
| 2026-04-22 14:10 | 24.25622 | 55.61252 | 35082 ft | 476 kts | 214° |
| 2026-04-22 14:10 | 24.19348 | 55.58609 | 35742 ft | 493 kts | 202° |
| 2026-04-22 14:10 | 24.12756 | 55.56683 | 35735 ft | 492 kts | 203° |
| 2026-04-22 14:11 | 23.99485 | 55.52716 | 35735 ft | 493 kts | 203° |
| 2026-04-22 14:11 | 23.86335 | 55.48812 | 35735 ft | 493 kts | 203° |
| 2026-04-22 14:12 | 23.73038 | 55.44864 | 35734 ft | 493 kts | 203° |
| 2026-04-22 14:12 | 23.59875 | 55.40962 | 35725 ft | 494 kts | 203° |